estenglv
WAP version
Login form
RSS
Premium-7 temposõidu 4. etapp 08.07.2013 (0)
Juba käesoleva nädala kolmapäeval toimub Premium-7 temposõidu neljas etapp trassil Pangodi-Elva-Pangodi (14,5 km). Eelregistreerimine on avatud kuni homse, s.o 9. juuli keskpäevani. ...
Algamas on Premium-7 temposõidusari 23.04.2013 (0)
Premium-7 Temposõidu esimese etapi eelregistreerimine lõppeb 23. aprilli keskpäeval, samuti lõppeb ka kogu sarjaks registreerimine.
Premium-7 temposõidu karikasari alustab juba 24. aprillil 04.04.2013 (0)
14,6 km
301 Moved Permanently Date: Wed, 05 Aug 2020 02:00:02 GMT Server: Apache / ZoneOS Location: https://www.ilm.ee/~data/include/ilm.php3 Content-Length: 318 Keep-Alive: timeout=5, max=100 Connection: Keep-Alive Content-Type: text/html; charset=iso-8859-1 301 Moved Permanently

Moved Permanently

The document has moved here.


Apache / ZoneOS Server at www.ilm.ee Port 80
Premium 7 temposõidu karikasari. 4.etapp
Aeg 10.07.2013
Koht Pangodi EST
Spordiala Jalgrattasport
Distants 15 km start avatud 18:00-20:00
Korraldaja MTÜ Kambja Rattaklubi, Paavo Soodla, +37250 77 130, kambjarattaklubi@gmail.com  
http://kambjark.wordpress.com/
LIIKLUSSKEEM
TULEMUSED
Nimi: Vanuseklass:
Text Xml Excel print
Koht Nr Nimi Võistkond  Aeg Koht v.k. Võistl.
kl.
 
1 142 Tuisk Priit SK Keremeister 19:51,3 1 MSen1
2 8 Kattai Kaupo RTR 20:23,0 1 MSen2
3 1 Kasenõmm Priit VEL 20:23,4 2 MSen1
4 103 Vahtra Norman RTR 20:26,2 1 MJ
5 111 Mikk Silver TriSmile 20:58,4 1 M
6 85 Lõiv Paul VEL 21:05,0 2 MSen2
7 95 Rattur Rajko HRK 21:09,3 3 MSen1
8 127 Mõts Olavi HRK 21:12,6 3 MSen2
9 76 Juronen Pertti SK Keremeister 21:17,6 4 MSen1
10 308 Lätte Raimo TYS 21:17,9 1 M16
11 114 Koort Tauno Luunja v. 21:20,9 4 MSen2
12 120 Dedov Peeter ATS SK 21:21,4 5 MSen1
13 123 Jõgi Villu RTR 21:23,5 2 M
14 44 Volmer Raul PEL 21:24,9 2 MJ
15 54 Lehtmaa Aivar DYN 21:25,4 1 MSen3
16 4 Pikkuus Aavo Patrick RTR 21:42,7 3 M
17 99 Leidt Meelis PEL 21:43,5 5 MSen2
18 13 Jurman Roger RTR 21:49,1 2 M16
19 176 Raudvee Märt Tartu 21:49,2 6 MSen1
20 97 Türna Siim Tartu 21:52,8 4 M
21 16 Rosenthal Reiko RTR 22:07,4 7 MSen1
22 172 Vahtra Vahur TYS 22:11,0 3 MJ
23 324 Kukrus Kristo TYS 22:13,9 3 M16
24 59 Mikson Margus Sportland 22:27,0 8 MSen1
25 88 Parmask Peeter VEL 22:32,9 2 MSen3
26 155 Põvvat Rainer Tartu 22:35,5 5 M
27 171 Randma Romet Põlva v. 22:35,7 9 MSen1
28 73 Press Toomas Rõuge racing team 22:48,6 6 M
29 56 Nool Sander HRK 22:50,6 4 MJ
30 179 Tähepõld Jannar DYN 22:51,2 10 MSen1
31 330 Krantsiveer Janno Külitse 22:56,5 6 MSen2
32 89 Kool Inge TYS 22:58,4 1 NSen
33 178 Talv Tarvi DYN 22:58,8 7 MSen2
34 53 Kõivumägi Georg TYS 22:59,1 4 M16
35 112 Heinsar Hardi VAR 23:03,0 8 MSen2
36 169 Tiit Aarne Team 30+ 23:04,8 11 MSen1
37 92 Vana Janek TriSmile 23:05,8 9 MSen2
38 110 Paluoja Madis TriSmile 23:07,8 10 MSen2
39 82 Helm Jaak HRK 23:08,7 12 MSen1
40 323 Suurpere Arvi RTR 23:09,8 11 MSen2
41 139 Ütt Madis TriSmile 23:14,7 12 MSen2
42 170 Saksing Siim PEL 23:15,4 13 MSen1
43 168 Kelk Margus DYN 23:16,9 13 MSen2
44 310 Mäekivi Andres 21CC triatloniklubi 23:17,5 14 MSen2
45 38 Treufeldt Ülo KJK 23:18,7 1 MSen6
46 138 Palotedder Taivo TriSmile 23:29,2 14 MSen1
47 301 Soome Raul HRK 23:30,9 15 MSen1
48 64 Rohtma Valdek TYS / SK Toonus 23:31,5 16 MSen1
49 327 Varblane Kärolin TYS 23:33,7 1 NJ
50 79 Koosa Marko Otepää 23:34,7 7 M
51 126 Üprus Fred Seicom 23:37,0 15 MSen2
52 321 Ojasaar Kalmer AjaT Sport 23:40,9 16 MSen2
53 316 Kiuru Väino KBJ 23:46,5 17 MSen1
54 314 Ventmann Henri Tartu 23:48,7 18 MSen1
55 164 Liivamägi Sven HRK 24:01,5 5 M16
56 325 Soosaar Cardo Tartu 24:04,4 19 MSen1
57 136 Hunt Toomas ASC 24:08,8 17 MSen2
58 141 Priman Silvar Digizone SK 24:12,4 20 MSen1
59 66 Mõttus Mari-Liis HRK 24:13,8 1 N16
60 322 Koik Kristjan Otepää 24:19,5 8 M
61 113 Murrut Mauno Elva 24:23,1 18 MSen2
62 302 Mikkelsaar Mart TriSmile 24:25,8 3 MSen3
63 328 Tapfer Remo Tartu 24:25,8 4 MSen3
64 181 Varep Rivo Tartu 24:30,5 21 MSen1
65 307 Reiljan Randolf TYS 24:34,5 5 MJ
66 37 Laanemets Raivo Elva 24:39,5 9 M
67 329 Zirk Kregor Ujumise SK 24:40,7 1 M14
68 315 Sarapuu Indrek KBJ 24:43,0 19 MSen2
69 70 Viispert Ando Ants Piibu bridžiklubi 24:59,3 22 MSen1
70 50 Lang Mae TYS 25:08,6 2 NJ
71 326 Bachaus Arno Team 30+ 25:11,8 23 MSen1
72 41 Pennert Vladimir Paide 25:13,9 1 MSen5
73 108 Leetma Kerdi PEL 25:25,5 2 NSen
74 63 Rammo Aapo VEL 25:26,8 2 MSen5
75 318 Randoja Merli Tartu 25:32,1 3 NSen
76 18 Kivi Elerin RTR 25:50,1 3 NJ
77 7 Kurgjärv Jaanika RTR 25:55,3 1 N
78 86 Mälgi Ailen PEL 26:00,3 4 NSen
79 9 Laas Kristel RTR 26:05,4 4 NJ
80 140 Kabral Iljar Elioni SK 26:05,5 24 MSen1
81 313 Kreitsberg Randel Elva 26:33,7 25 MSen1
82 91 Zirk Kunnar TriSmile 26:37,3 26 MSen1
83 83 Oot Anti EXT 26:40,2 3 MSen5
84 122 Kangur Tarmo Tartu 27:18,0 20 MSen2
85 34 Luht Laura Helene TYS 27:43,5 1 N14
86 317 Rand Kristi KBJ 28:02,4 2 N
87 177 Tagel Ilmar TriSmile/Põlva 28:36,6 1 MSen7
88 319 Tamm Kaili Põlva 28:49,6 5 NSen
89 152 Vent Karl Mihkel TYS 31:06,9 2 M14
90 48 Pung Piret VOC 32:59,7 2 N14
91 320 Üprus Ramona Pangodi 43:13,1 3 N14
‹‹ Tagasi
 
Kommenteerimine ajutisel peatatud!
Sorteeri vanemast uuemaks:
indrek, , 10.07.2013 23:05
veidi toored tulemused siin: http://kambjark.wordpress.com/etapid/4-etapp-10-07-2013/
eehh, , 10.07.2013 08:04
see on põhja-korea koondis
tulnukad, , 09.07.2013 20:48
Kes on see Keio mitmes isikus. Kas mingid tulnukad. Gentarilt?


Kõige populaarsemad
Kambja_Rattaklubi_r
Premium 7
Kasutajanimi:
Parool:
 
*Uus kasutaja *Unustasid parooli?
SPORTINFO
KORRALDAJATELE
KIRJUTA MEILE
KONTAKT
KASUTUSTINGIMUSED
KOMMENTEERIMINE